Time;durP1;ratioP1;P1;durP2;ratioP2;P2;SDS_P1;SDS_P2;PMS_P1;PMS_P2;Temp;Humidity;BMP_temperature;BMP_pressure;BME280_temperature;BME280_humidity;BME280_pressure;Samples;Min_cycle;Max_cycle;Signal;HPM_P1;HPM_P2
2023/06/13 08:33:38;;;;;;;5.00;4.10;;;19.70;75.70;;;;;;501036;237;29100;-76
2023/06/13 08:35:39;;;;;;;5.17;3.40;;;19.50;74.30;;;;;;501118;237;29273;-77
2023/06/13 08:37:40;;;;;;;6.23;3.90;;;19.60;75.70;;;;;;501106;237;28828;-76
2023/06/13 08:39:42;;;;;;;5.87;3.90;;;19.60;73.60;;;;;;501072;237;28753;-76
2023/06/13 08:41:43;;;;;;;6.73;4.00;;;19.60;72.90;;;;;;501128;237;28916;-77
2023/06/13 08:43:44;;;;;;;4.43;3.90;;;19.60;73.10;;;;;;501113;237;28769;-76
2023/06/13 08:45:45;;;;;;;7.20;4.07;;;19.50;73.30;;;;;;501125;237;28839;-76
2023/06/13 08:47:48;;;;;;;8.40;4.03;;;19.50;74.10;;;;;;501136;237;28730;-76
2023/06/13 08:49:48;;;;;;;5.70;3.87;;;19.70;75.00;;;;;;501043;237;28777;-76
2023/06/13 08:51:49;;;;;;;5.17;3.43;;;19.60;73.80;;;;;;501103;237;28820;-76
2023/06/13 08:53:51;;;;;;;7.93;4.17;;;19.50;74.60;;;;;;501097;237;28725;-75
2023/06/13 08:55:52;;;;;;;5.13;3.87;;;19.60;75.30;;;;;;501071;237;29215;-76
2023/06/13 08:57:53;;;;;;;6.23;3.30;;;19.80;75.50;;;;;;501111;237;29167;-76
2023/06/13 08:59:55;;;;;;;4.80;3.73;;;19.90;75.50;;;;;;501078;237;29352;-77
2023/06/13 09:01:56;;;;;;;4.10;3.10;;;19.90;75.20;;;;;;501030;237;29693;-76
2023/06/13 09:03:57;;;;;;;6.17;3.93;;;19.90;74.40;;;;;;501088;237;28706;-76
2023/06/13 09:05:58;;;;;;;6.97;4.37;;;19.90;73.70;;;;;;501118;237;28759;-76
2023/06/13 09:07:59;;;;;;;3.53;3.23;;;20.00;74.60;;;;;;501113;237;28760;-76
2023/06/13 09:10:00;;;;;;;4.03;3.53;;;20.20;75.50;;;;;;501046;237;28827;-76
2023/06/13 09:12:02;;;;;;;6.50;4.10;;;20.30;73.30;;;;;;501108;237;28732;-76
2023/06/13 09:14:03;;;;;;;6.03;3.60;;;20.20;72.60;;;;;;501112;237;28738;-76
2023/06/13 09:16:04;;;;;;;6.57;3.50;;;20.20;72.40;;;;;;501145;237;28772;-77
2023/06/13 09:18:05;;;;;;;5.03;3.80;;;20.20;71.70;;;;;;501104;237;28844;-76
2023/06/13 09:20:07;;;;;;;6.33;3.57;;;20.20;72.40;;;;;;501102;237;29327;-76
2023/06/13 09:22:08;;;;;;;4.80;3.40;;;20.30;73.20;;;;;;500662;237;30069;-77
2023/06/13 09:24:09;;;;;;;4.17;3.63;;;20.40;70.90;;;;;;500543;237;29248;-76
2023/06/13 09:26:10;;;;;;;10.00;4.33;;;20.00;69.90;;;;;;501141;237;29408;-78
2023/06/13 09:28:12;;;;;;;4.90;3.57;;;20.10;71.60;;;;;;501157;237;28727;-76
2023/06/13 09:30:13;;;;;;;5.73;3.63;;;20.20;70.80;;;;;;501140;237;28863;-76
2023/06/13 09:32:14;;;;;;;6.10;3.40;;;20.30;72.40;;;;;;501126;237;28792;-76
2023/06/13 09:34:18;;;;;;;8.30;4.10;;;20.50;71.50;;;;;;499560;237;35688;-76
2023/06/13 09:36:20;;;;;;;5.07;3.93;;;20.50;71.70;;;;;;501202;237;27424;-76
2023/06/13 09:38:24;;;;;;;7.50;3.83;;;20.50;70.60;;;;;;501145;237;29316;-77
2023/06/13 09:40:25;;;;;;;7.17;3.80;;;20.40;70.80;;;;;;501099;237;28779;-78
2023/06/13 09:42:26;;;;;;;5.53;3.77;;;20.40;70.20;;;;;;501081;237;28789;-76
2023/06/13 09:44:28;;;;;;;7.57;4.10;;;20.60;71.70;;;;;;500994;237;28726;-76
2023/06/13 09:46:29;;;;;;;4.10;3.70;;;20.50;71.80;;;;;;501142;237;28845;-78
2023/06/13 09:48:30;;;;;;;8.07;4.10;;;20.60;71.60;;;;;;501117;237;28710;-76
2023/06/13 09:50:31;;;;;;;4.87;3.93;;;20.70;72.80;;;;;;501098;237;28777;-76
2023/06/13 09:52:33;;;;;;;4.20;3.80;;;20.60;70.80;;;;;;501098;237;28804;-76
2023/06/13 09:54:34;;;;;;;9.13;4.00;;;20.80;71.20;;;;;;501123;237;28708;-77
2023/06/13 09:56:35;;;;;;;7.17;3.83;;;20.60;71.70;;;;;;501112;237;28842;-77
2023/06/13 09:58:36;;;;;;;5.30;4.10;;;21.00;71.80;;;;;;501135;237;29188;-76
2023/06/13 10:00:38;;;;;;;5.50;3.77;;;21.10;71.40;;;;;;501092;237;29231;-78
2023/06/13 10:02:39;;;;;;;4.30;3.83;;;21.10;71.70;;;;;;501089;237;29374;-76
2023/06/13 10:04:40;;;;;;;5.50;4.07;;;21.20;70.80;;;;;;501088;237;28729;-77
2023/06/13 10:06:41;;;;;;;8.53;4.50;;;21.30;70.60;;;;;;501144;237;28716;-77
2023/06/13 10:08:43;;;;;;;19.63;4.30;;;21.10;69.90;;;;;;501116;237;28815;-76
2023/06/13 10:10:44;;;;;;;5.70;4.00;;;21.00;71.00;;;;;;500944;237;28804;-76
2023/06/13 10:12:45;;;;;;;5.33;4.53;;;21.00;71.80;;;;;;501087;237;28705;-76
2023/06/13 10:14:46;;;;;;;4.67;4.10;;;21.20;70.90;;;;;;501091;237;28742;-76
2023/06/13 10:16:48;;;;;;;9.53;4.07;;;21.30;67.20;;;;;;501145;237;29300;-76
2023/06/13 10:18:49;;;;;;;8.40;4.13;;;21.40;67.00;;;;;;501087;237;29226;-77
2023/06/13 10:20:50;;;;;;;5.20;4.10;;;21.50;66.90;;;;;;501085;237;29650;-76
2023/06/13 10:22:52;;;;;;;4.73;4.20;;;21.60;68.20;;;;;;501070;237;28746;-76
2023/06/13 10:24:53;;;;;;;10.53;4.40;;;21.60;68.00;;;;;;501045;237;28749;-76
2023/06/13 10:26:54;;;;;;;4.37;3.97;;;21.80;67.90;;;;;;501100;237;28877;-76
2023/06/13 10:28:55;;;;;;;4.73;3.63;;;21.80;68.50;;;;;;501118;237;28801;-77
2023/06/13 10:30:57;;;;;;;4.33;3.93;;;21.70;65.60;;;;;;501103;237;28799;-77
2023/06/13 10:32:58;;;;;;;8.53;4.20;;;21.50;66.00;;;;;;501108;237;28762;-76
2023/06/13 10:35:01;;;;;;;6.80;4.50;;;21.60;67.50;;;;;;501076;237;28778;-76
2023/06/13 10:37:00;;;;;;;6.77;4.10;;;21.80;65.00;;;;;;501008;237;28876;-77
2023/06/13 10:39:03;;;;;;;6.70;4.27;;;21.60;65.50;;;;;;501114;237;29154;-77
2023/06/13 10:41:03;;;;;;;9.30;4.70;;;21.70;65.80;;;;;;500981;237;29334;-76
2023/06/13 10:43:04;;;;;;;7.27;4.03;;;21.70;65.30;;;;;;501121;237;29195;-77
2023/06/13 10:45:07;;;;;;;5.40;4.13;;;21.70;66.40;;;;;;501069;237;29224;-75
2023/06/13 10:47:07;;;;;;;6.03;4.50;;;21.90;67.00;;;;;;501062;237;28787;-77
2023/06/13 10:49:08;;;;;;;7.93;4.10;;;21.90;66.40;;;;;;501141;237;28724;-76
2023/06/13 10:51:09;;;;;;;5.53;4.20;;;21.70;67.00;;;;;;501092;237;28867;-77
2023/06/13 10:53:10;;;;;;;5.93;4.17;;;22.00;66.90;;;;;;501067;237;28710;-77
2023/06/13 10:55:13;;;;;;;4.20;3.80;;;22.10;66.30;;;;;;501038;237;28791;-77
2023/06/13 10:57:13;;;;;;;5.10;4.20;;;22.10;64.40;;;;;;501052;237;28766;-76
2023/06/13 10:59:14;;;;;;;7.00;4.33;;;21.90;64.20;;;;;;501131;237;28852;-77
2023/06/13 11:01:15;;;;;;;5.83;4.30;;;22.00;65.10;;;;;;501093;237;28770;-76
2023/06/13 11:03:17;;;;;;;6.80;4.73;;;22.40;65.90;;;;;;501100;237;28746;-77
2023/06/13 11:05:18;;;;;;;10.90;4.00;;;22.40;61.20;;;;;;501023;237;29230;-76
2023/06/13 11:07:19;;;;;;;4.80;4.07;;;22.30;63.40;;;;;;501116;237;30012;-77
2023/06/13 11:09:20;;;;;;;5.50;3.83;;;22.00;62.80;;;;;;501122;234;29197;-76
2023/06/13 11:11:22;;;;;;;11.00;4.30;;;22.20;64.70;;;;;;501047;237;28800;-78
2023/06/13 11:13:23;;;;;;;8.17;4.50;;;22.30;63.60;;;;;;501116;237;28815;-77
2023/06/13 11:15:24;;;;;;;6.17;4.50;;;22.50;61.00;;;;;;501101;237;28880;-77
2023/06/13 11:17:25;;;;;;;5.20;3.90;;;22.40;61.40;;;;;;501093;237;28816;-77
2023/06/13 11:19:30;;;;;;;6.60;3.70;;;22.50;62.30;;;;;;501093;237;28806;-77
2023/06/13 11:21:31;;;;;;;5.70;4.33;;;22.60;62.60;;;;;;501088;237;28820;-78
2023/06/13 11:23:32;;;;;;;8.03;4.80;;;22.10;62.40;;;;;;501106;237;29244;-77
2023/06/13 11:25:33;;;;;;;5.67;3.90;;;22.00;63.30;;;;;;501101;237;29252;-76
2023/06/13 11:27:35;;;;;;;5.50;4.17;;;22.40;63.50;;;;;;501057;237;29263;-77
2023/06/13 11:29:37;;;;;;;4.23;3.73;;;22.60;64.20;;;;;;501091;237;29469;-76
2023/06/13 11:31:37;;;;;;;8.37;4.40;;;22.70;62.10;;;;;;501054;237;28796;-77
2023/06/13 11:33:38;;;;;;;4.60;4.20;;;22.40;60.40;;;;;;501083;237;28778;-77
2023/06/13 11:35:40;;;;;;;7.80;4.70;;;22.80;61.50;;;;;;501082;237;28843;-76
2023/06/13 11:37:44;;;;;;;6.73;4.40;;;22.90;61.30;;;;;;501104;237;28767;-78
2023/06/13 11:39:42;;;;;;;8.23;4.07;;;22.60;59.00;;;;;;500887;237;28771;-77
2023/06/13 11:41:43;;;;;;;5.83;4.17;;;22.50;60.00;;;;;;501079;237;28742;-77
2023/06/13 11:43:45;;;;;;;5.20;4.10;;;22.90;59.90;;;;;;501114;237;28782;-76
2023/06/13 11:45:46;;;;;;;8.47;4.30;;;22.90;57.20;;;;;;501050;237;28801;-77
2023/06/13 11:47:47;;;;;;;7.97;3.90;;;22.60;58.50;;;;;;501100;237;29360;-77
2023/06/13 11:49:48;;;;;;;5.73;4.40;;;22.80;58.70;;;;;;501075;237;29997;-76
2023/06/13 11:51:50;;;;;;;5.03;3.87;;;22.80;58.60;;;;;;501078;237;29312;-78
2023/06/13 11:53:51;;;;;;;4.57;4.17;;;22.60;58.00;;;;;;501100;237;29250;-77
2023/06/13 11:55:52;;;;;;;5.60;4.40;;;22.80;59.20;;;;;;501074;237;28800;-76
2023/06/13 11:57:55;;;;;;;6.90;4.10;;;22.90;59.00;;;;;;501117;237;28758;-77
2023/06/13 11:59:55;;;;;;;7.00;4.30;;;22.90;59.40;;;;;;501040;237;28802;-76
2023/06/13 12:01:56;;;;;;;7.83;4.27;;;23.00;60.20;;;;;;501107;237;28732;-76
2023/06/13 12:04:00;;;;;;;5.50;3.93;;;22.90;58.80;;;;;;501130;237;28757;-77
2023/06/13 12:05:58;;;;;;;6.13;4.53;;;22.70;58.40;;;;;;500946;237;28714;-76
2023/06/13 12:08:00;;;;;;;6.70;4.10;;;22.50;58.60;;;;;;501115;237;28758;-77
2023/06/13 12:10:01;;;;;;;4.97;4.20;;;22.80;59.30;;;;;;501105;237;28879;-76
2023/06/13 12:12:02;;;;;;;6.13;4.40;;;23.10;58.20;;;;;;501055;236;28758;-77
2023/06/13 12:14:03;;;;;;;6.40;3.90;;;23.10;57.60;;;;;;501131;237;29317;-77
2023/06/13 12:16:05;;;;;;;4.27;3.87;;;23.40;59.30;;;;;;501109;237;29295;-77
2023/06/13 12:18:06;;;;;;;5.63;4.30;;;23.70;57.70;;;;;;501069;237;29348;-77
2023/06/13 12:20:10;;;;;;;4.10;3.70;;;23.40;57.60;;;;;;501083;237;28823;-77
2023/06/13 12:22:08;;;;;;;5.93;4.23;;;23.40;58.20;;;;;;500841;237;28750;-77
2023/06/13 12:24:10;;;;;;;9.73;4.30;;;23.20;57.40;;;;;;501097;237;28805;-76
2023/06/13 12:26:11;;;;;;;4.60;4.00;;;23.60;58.70;;;;;;501061;237;28725;-76
2023/06/13 12:28:15;;;;;;;5.83;4.30;;;23.50;56.60;;;;;;501076;237;28746;-77
2023/06/13 12:30:13;;;;;;;9.60;4.43;;;23.30;55.10;;;;;;500878;237;28747;-77
2023/06/13 12:32:15;;;;;;;4.90;4.20;;;23.50;55.70;;;;;;501027;237;28782;-76
2023/06/13 12:34:26;;;;;;;5.37;4.20;;;23.50;54.60;;;;;;501109;237;28786;-77
2023/06/13 12:36:20;;;;;;;6.70;4.27;;;23.40;53.80;;;;;;500526;236;28788;-76
2023/06/13 12:38:21;;;;;;;5.20;4.40;;;23.50;54.40;;;;;;501056;237;28825;-77
2023/06/13 12:40:24;;;;;;;12.50;4.60;;;23.20;56.50;;;;;;501082;237;28868;-77
2023/06/13 12:42:24;;;;;;;5.10;4.50;;;23.50;55.40;;;;;;500966;237;28757;-77
2023/06/13 12:44:25;;;;;;;7.47;4.53;;;23.50;55.10;;;;;;501068;237;28902;-77
2023/06/13 12:46:26;;;;;;;6.37;4.60;;;23.50;57.10;;;;;;501113;237;28786;-78
2023/06/13 12:48:28;;;;;;;5.73;4.30;;;23.50;57.30;;;;;;501112;236;28809;-78
2023/06/13 12:50:30;;;;;;;6.00;4.30;;;23.80;58.40;;;;;;501098;237;29660;-77
2023/06/13 12:52:31;;;;;;;7.67;5.00;;;23.90;58.70;;;;;;500999;237;29337;-76
2023/06/13 12:54:33;;;;;;;4.70;4.17;;;23.80;57.80;;;;;;501054;237;29230;-77
2023/06/13 12:56:34;;;;;;;7.13;4.57;;;23.40;58.10;;;;;;501084;237;28803;-76
2023/06/13 12:58:35;;;;;;;5.33;4.50;;;23.70;58.10;;;;;;501003;236;29228;-76
2023/06/13 13:00:37;;;;;;;5.20;4.03;;;23.90;57.20;;;;;;501112;237;29983;-77
2023/06/13 13:02:38;;;;;;;8.37;4.00;;;23.40;57.40;;;;;;501098;237;29299;-77
2023/06/13 13:04:39;;;;;;;6.80;4.60;;;23.10;57.20;;;;;;501133;237;28798;-78
2023/06/13 13:06:44;;;;;;;12.03;4.90;;;23.20;58.00;;;;;;500883;237;28758;-77
2023/06/13 13:08:42;;;;;;;4.80;4.17;;;23.30;57.90;;;;;;500910;237;28765;-77
2023/06/13 13:10:43;;;;;;;5.20;4.40;;;23.30;57.80;;;;;;501096;237;28820;-77
2023/06/13 13:12:44;;;;;;;8.30;4.30;;;23.80;59.10;;;;;;501094;237;28731;-77
2023/06/13 13:14:45;;;;;;;23.97;4.90;;;23.90;57.40;;;;;;501088;237;28774;-77
2023/06/13 13:16:47;;;;;;;6.17;4.43;;;23.90;57.60;;;;;;501087;237;28866;-77
2023/06/13 13:18:48;;;;;;;8.00;4.30;;;23.90;57.70;;;;;;500933;237;28758;-77
2023/06/13 13:20:49;;;;;;;7.83;4.60;;;23.90;57.90;;;;;;501090;237;29298;-77
2023/06/13 13:22:50;;;;;;;5.67;4.37;;;23.70;55.60;;;;;;501022;237;29274;-76
2023/06/13 13:24:52;;;;;;;7.37;4.67;;;23.80;56.80;;;;;;501134;237;29236;-77
2023/06/13 13:26:53;;;;;;;8.37;4.67;;;23.90;55.00;;;;;;501096;237;29196;-77
2023/06/13 13:28:54;;;;;;;4.60;4.17;;;23.60;55.60;;;;;;501062;237;28865;-76
2023/06/13 13:30:55;;;;;;;4.10;3.80;;;23.40;54.50;;;;;;501099;237;28725;-76
2023/06/13 13:32:57;;;;;;;6.87;4.00;;;23.60;53.60;;;;;;501126;237;28836;-77
2023/06/13 13:34:58;;;;;;;5.00;4.50;;;23.50;54.30;;;;;;501177;237;28877;-78
2023/06/13 13:36:59;;;;;;;6.43;4.20;;;23.70;55.90;;;;;;501138;237;28720;-77
2023/06/13 13:39:02;;;;;;;6.50;4.77;;;24.10;55.80;;;;;;501154;237;28803;-77
2023/06/13 13:41:02;;;;;;;6.37;4.80;;;24.10;56.70;;;;;;500977;237;28878;-76
2023/06/13 13:43:03;;;;;;;5.20;4.43;;;23.80;55.50;;;;;;501069;237;28786;-78
2023/06/13 13:45:04;;;;;;;12.67;5.40;;;23.80;56.20;;;;;;501113;237;28791;-77
2023/06/13 13:47:05;;;;;;;5.60;4.27;;;23.90;56.50;;;;;;501081;237;29338;-77
2023/06/13 13:49:07;;;;;;;5.40;4.47;;;24.00;55.90;;;;;;501100;237;29311;-76
2023/06/13 13:51:08;;;;;;;8.77;5.00;;;24.10;56.60;;;;;;501096;237;29189;-76
2023/06/13 13:53:09;;;;;;;7.20;4.73;;;24.20;56.50;;;;;;501079;237;28868;-77
2023/06/13 13:55:12;;;;;;;5.33;4.83;;;24.40;55.60;;;;;;501046;237;28864;-78
2023/06/13 13:57:12;;;;;;;6.83;4.90;;;24.40;55.70;;;;;;500941;237;28776;-77
2023/06/13 13:59:13;;;;;;;10.00;4.60;;;24.00;54.30;;;;;;501029;237;28758;-77
2023/06/13 14:01:14;;;;;;;4.77;4.37;;;23.90;54.20;;;;;;501097;235;28720;-77
2023/06/13 14:03:15;;;;;;;6.77;4.40;;;23.80;54.30;;;;;;500762;237;28856;-77
2023/06/13 14:05:17;;;;;;;5.40;4.37;;;23.90;53.70;;;;;;501097;237;29214;-78
2023/06/13 14:07:18;;;;;;;6.83;4.87;;;24.10;53.90;;;;;;501086;237;28838;-76
2023/06/13 14:09:19;;;;;;;6.03;4.27;;;24.10;53.50;;;;;;501110;237;29262;-78
2023/06/13 14:11:22;;;;;;;7.10;4.60;;;24.20;55.40;;;;;;501088;237;29313;-77
2023/06/13 14:13:22;;;;;;;6.20;4.57;;;24.10;55.50;;;;;;500925;237;29256;-77
2023/06/13 14:15:23;;;;;;;5.60;4.50;;;24.20;56.40;;;;;;501125;237;29302;-76
2023/06/13 14:17:24;;;;;;;6.30;4.37;;;24.40;54.00;;;;;;501115;237;28830;-76
2023/06/13 14:19:25;;;;;;;4.93;4.43;;;24.40;53.20;;;;;;501103;237;28799;-77
2023/06/13 14:21:27;;;;;;;6.60;4.57;;;24.70;53.20;;;;;;500892;237;28726;-77
2023/06/13 14:23:28;;;;;;;7.13;4.70;;;24.60;53.00;;;;;;501079;237;28773;-77
2023/06/13 14:25:29;;;;;;;6.13;4.87;;;24.60;53.00;;;;;;501097;237;28776;-76
2023/06/13 14:27:30;;;;;;;5.70;4.60;;;24.60;53.70;;;;;;501087;237;28879;-78
2023/06/13 14:29:32;;;;;;;9.80;4.67;;;24.60;54.50;;;;;;501091;237;28867;-76
2023/06/13 14:31:33;;;;;;;6.07;5.00;;;24.20;54.10;;;;;;501098;237;28723;-77
2023/06/13 14:33:34;;;;;;;6.13;4.30;;;23.90;54.30;;;;;;501048;237;29253;-77
2023/06/13 14:35:35;;;;;;;7.40;5.00;;;24.30;54.20;;;;;;501092;237;29412;-77
2023/06/13 14:37:37;;;;;;;8.33;4.40;;;24.30;54.30;;;;;;501105;237;29189;-76
2023/06/13 14:39:38;;;;;;;4.53;4.13;;;24.30;54.10;;;;;;501089;237;29322;-77
2023/06/13 14:41:39;;;;;;;4.70;4.20;;;24.20;54.30;;;;;;501051;237;28880;-76
2023/06/13 14:43:41;;;;;;;5.93;4.77;;;24.20;54.20;;;;;;501001;237;28846;-77
2023/06/13 14:45:42;;;;;;;5.87;5.27;;;24.40;54.10;;;;;;501099;237;28736;-77
2023/06/13 14:47:43;;;;;;;5.00;4.50;;;24.30;53.80;;;;;;501096;237;28731;-77
2023/06/13 14:49:44;;;;;;;6.40;4.50;;;24.20;53.70;;;;;;501080;237;28785;-77
2023/06/13 14:51:45;;;;;;;9.23;5.20;;;24.30;54.10;;;;;;501068;237;28875;-77
2023/06/13 14:53:47;;;;;;;4.93;4.10;;;24.10;53.70;;;;;;501030;237;28790;-77
2023/06/13 14:55:48;;;;;;;5.53;4.80;;;24.10;54.60;;;;;;501078;237;28729;-76
2023/06/13 14:57:50;;;;;;;4.80;4.40;;;24.60;54.20;;;;;;501070;237;28759;-77
2023/06/13 14:59:50;;;;;;;7.57;5.00;;;24.70;52.50;;;;;;501080;237;29265;-78
2023/06/13 15:01:55;;;;;;;9.70;4.73;;;24.70;51.90;;;;;;501095;237;29184;-77
2023/06/13 15:03:55;;;;;;;6.50;4.43;;;24.60;51.40;;;;;;500843;237;29384;-77
2023/06/13 15:05:54;;;;;;;7.10;5.33;;;24.70;51.10;;;;;;500966;237;28734;-77
2023/06/13 15:07:56;;;;;;;6.10;4.83;;;24.80;51.60;;;;;;501044;237;28775;-76
2023/06/13 15:09:57;;;;;;;5.80;4.57;;;24.80;52.50;;;;;;501135;237;28872;-78
2023/06/13 15:11:59;;;;;;;7.00;4.47;;;24.90;52.70;;;;;;501114;237;28712;-76
2023/06/13 15:14:02;;;;;;;5.00;4.50;;;25.10;53.30;;;;;;501076;237;28762;-77
2023/06/13 15:16:01;;;;;;;7.63;4.50;;;25.10;54.00;;;;;;500890;237;28756;-77
2023/06/13 15:18:02;;;;;;;7.50;4.73;;;25.10;53.10;;;;;;501018;237;28771;-77
2023/06/13 15:20:04;;;;;;;4.93;4.43;;;25.00;53.90;;;;;;501114;237;28810;-77
2023/06/13 15:22:04;;;;;;;6.80;4.60;;;25.00;52.90;;;;;;501067;237;28741;-77
2023/06/13 15:24:06;;;;;;;5.20;4.70;;;24.80;53.10;;;;;;501081;237;29219;-77
2023/06/13 15:26:07;;;;;;;7.67;4.90;;;24.40;53.60;;;;;;501069;237;29354;-76
2023/06/13 15:28:09;;;;;;;6.37;4.70;;;24.30;53.50;;;;;;501062;237;29295;-77
2023/06/13 15:30:10;;;;;;;5.03;4.30;;;24.20;53.30;;;;;;501069;237;29303;-77
2023/06/13 15:32:11;;;;;;;6.50;4.57;;;24.30;53.80;;;;;;501092;237;28781;-76
2023/06/13 15:34:12;;;;;;;7.03;5.10;;;24.30;53.50;;;;;;501098;237;28763;-77
2023/06/13 15:36:13;;;;;;;10.60;4.70;;;24.40;53.40;;;;;;501151;237;28822;-76
2023/06/13 15:38:14;;;;;;;8.77;4.63;;;24.60;53.60;;;;;;501098;237;28896;-77
2023/06/13 15:40:16;;;;;;;7.63;4.40;;;24.90;53.10;;;;;;501099;237;28743;-76
2023/06/13 15:42:18;;;;;;;7.33;4.60;;;25.10;52.00;;;;;;501122;237;28767;-77
2023/06/13 15:44:18;;;;;;;5.27;4.60;;;24.80;50.60;;;;;;501116;237;28750;-77
2023/06/13 15:46:21;;;;;;;6.17;5.30;;;24.60;51.30;;;;;;501116;237;28734;-77
2023/06/13 15:48:21;;;;;;;6.50;4.57;;;24.90;52.10;;;;;;500987;237;29246;-79
2023/06/13 15:50:22;;;;;;;9.73;4.90;;;24.90;51.40;;;;;;501092;237;29298;-78
2023/06/13 15:52:23;;;;;;;6.70;4.80;;;24.80;51.60;;;;;;501094;237;29250;-77
2023/06/13 15:54:25;;;;;;;5.60;4.67;;;24.90;50.10;;;;;;501092;237;28885;-77
2023/06/13 15:56:27;;;;;;;5.77;5.00;;;24.60;50.00;;;;;;501070;237;28729;-77
2023/06/13 15:58:27;;;;;;;5.33;4.63;;;24.40;50.70;;;;;;501017;237;28752;-76
2023/06/13 16:00:28;;;;;;;7.50;4.93;;;24.70;51.70;;;;;;501097;237;28728;-76
2023/06/13 16:02:29;;;;;;;4.23;3.70;;;24.60;51.80;;;;;;501040;237;28752;-77
2023/06/13 16:04:31;;;;;;;5.30;4.50;;;24.40;51.90;;;;;;501073;237;28820;-76
2023/06/13 16:06:32;;;;;;;8.50;4.43;;;24.60;52.30;;;;;;501084;237;28828;-77
2023/06/13 16:08:42;;;;;;;5.93;4.43;;;;;;;;;;501049;237;28758;-76
2023/06/13 16:10:37;;;;;;;8.47;4.53;;;24.90;51.60;;;;;;500535;237;26951;-78
2023/06/13 16:12:38;;;;;;;4.77;4.27;;;25.20;52.50;;;;;;501073;237;29372;-77
2023/06/13 16:14:39;;;;;;;9.10;4.80;;;25.30;51.80;;;;;;501045;237;29235;-78
2023/06/13 16:16:41;;;;;;;7.83;4.00;;;25.10;51.50;;;;;;501079;237;28753;-77
2023/06/13 16:18:42;;;;;;;6.77;4.00;;;24.80;51.60;;;;;;501020;237;28771;-77
2023/06/13 16:20:43;;;;;;;5.00;4.50;;;24.90;52.40;;;;;;501105;237;28739;-77
2023/06/13 16:22:44;;;;;;;6.73;4.17;;;24.80;51.80;;;;;;501114;237;28703;-77
2023/06/13 16:24:45;;;;;;;6.20;4.40;;;24.70;51.10;;;;;;501096;237;28792;-77
2023/06/13 16:26:47;;;;;;;4.57;4.10;;;24.40;51.00;;;;;;501081;237;28725;-76
2023/06/13 16:28:48;;;;;;;5.37;4.40;;;24.30;51.60;;;;;;501054;237;28889;-77
2023/06/13 16:30:50;;;;;;;6.03;4.30;;;24.50;51.60;;;;;;501075;237;28726;-78
2023/06/13 16:32:51;;;;;;;6.00;4.37;;;24.60;52.00;;;;;;501053;237;28756;-77
2023/06/13 16:34:52;;;;;;;5.50;4.00;;;24.80;51.60;;;;;;500982;237;29300;-77
2023/06/13 16:36:53;;;;;;;12.00;4.70;;;24.90;51.80;;;;;;501099;237;29249;-76
2023/06/13 16:38:55;;;;;;;8.07;4.60;;;24.90;51.70;;;;;;501063;237;29305;-77
2023/06/13 16:40:56;;;;;;;5.60;4.27;;;24.30;50.50;;;;;;501044;237;28751;-77
2023/06/13 16:42:57;;;;;;;8.23;3.60;;;24.50;51.90;;;;;;501102;237;28816;-77
2023/06/13 16:44:58;;;;;;;7.27;4.47;;;24.80;52.10;;;;;;501066;237;28763;-78
2023/06/13 16:47:00;;;;;;;11.63;4.20;;;24.90;51.80;;;;;;501070;237;28813;-77
2023/06/13 16:49:00;;;;;;;14.50;4.23;;;24.90;51.30;;;;;;500998;237;28865;-77
2023/06/13 16:51:02;;;;;;;5.73;4.43;;;24.70;50.20;;;;;;501111;237;28845;-76
2023/06/13 16:53:04;;;;;;;5.27;4.27;;;24.40;50.30;;;;;;501146;237;28714;-77
2023/06/13 16:55:05;;;;;;;4.80;4.20;;;24.80;50.60;;;;;;501084;237;28839;-77
2023/06/13 16:57:06;;;;;;;5.23;4.33;;;24.60;49.20;;;;;;501091;237;29374;-77
2023/06/13 16:59:07;;;;;;;4.17;3.77;;;24.50;49.70;;;;;;501023;237;29214;-77
2023/06/13 17:01:08;;;;;;;6.77;4.20;;;24.40;49.80;;;;;;501072;237;30107;-77
2023/06/13 17:03:10;;;;;;;7.63;4.23;;;24.50;49.70;;;;;;501125;237;28723;-77
2023/06/13 17:05:11;;;;;;;7.97;4.37;;;24.60;50.30;;;;;;501098;237;28809;-77
2023/06/13 17:07:12;;;;;;;4.90;4.17;;;24.60;50.20;;;;;;501107;237;28726;-77
2023/06/13 17:09:13;;;;;;;4.93;4.37;;;24.40;50.40;;;;;;501039;237;28828;-77
2023/06/13 17:11:14;;;;;;;6.80;4.53;;;24.70;50.70;;;;;;501075;237;28748;-77
2023/06/13 17:13:16;;;;;;;4.30;3.90;;;24.70;50.20;;;;;;501111;237;28799;-78
2023/06/13 17:15:17;;;;;;;7.30;4.40;;;24.70;49.40;;;;;;501054;237;28780;-78
2023/06/13 17:17:18;;;;;;;5.03;4.30;;;24.70;50.20;;;;;;501087;237;28738;-77
2023/06/13 17:19:22;;;;;;;4.87;4.17;;;24.80;49.20;;;;;;501042;237;28863;-78
2023/06/13 17:21:21;;;;;;;4.80;4.30;;;24.30;49.20;;;;;;500895;237;30256;-78
2023/06/13 17:23:22;;;;;;;5.60;4.53;;;24.30;50.00;;;;;;501085;237;29350;-78
2023/06/13 17:25:23;;;;;;;7.83;4.67;;;24.50;49.70;;;;;;501080;237;29322;-78
2023/06/13 17:27:24;;;;;;;4.97;4.20;;;24.30;49.60;;;;;;501077;237;28750;-78
2023/06/13 17:29:26;;;;;;;6.60;4.13;;;24.40;49.50;;;;;;500986;237;28857;-77
2023/06/13 17:31:27;;;;;;;4.97;4.00;;;24.50;49.50;;;;;;501071;237;28813;-77
2023/06/13 17:33:28;;;;;;;11.77;4.47;;;24.50;49.90;;;;;;501131;234;28843;-78
2023/06/13 17:35:29;;;;;;;8.40;4.30;;;24.20;48.90;;;;;;501095;237;28774;-77
2023/06/13 17:37:31;;;;;;;8.50;4.37;;;24.10;48.50;;;;;;500983;237;28857;-78
2023/06/13 17:39:32;;;;;;;6.40;4.60;;;24.00;48.50;;;;;;501074;237;28779;-78
2023/06/13 17:41:33;;;;;;;4.53;4.13;;;24.00;49.20;;;;;;501136;237;28713;-77
2023/06/13 17:43:34;;;;;;;4.70;4.17;;;24.00;49.70;;;;;;501110;237;28859;-78
2023/06/13 17:45:36;;;;;;;8.53;4.67;;;24.00;49.50;;;;;;501092;237;29234;-77
2023/06/13 17:47:38;;;;;;;7.23;5.10;;;24.10;50.10;;;;;;501105;237;29281;-76
2023/06/13 17:49:38;;;;;;;7.87;4.90;;;24.20;50.40;;;;;;500971;237;29229;-78
2023/06/13 17:51:39;;;;;;;5.77;4.60;;;24.20;50.30;;;;;;501115;237;28896;-78
2023/06/13 17:53:41;;;;;;;5.17;4.67;;;24.10;49.40;;;;;;501124;237;28862;-78
2023/06/13 17:55:42;;;;;;;9.43;4.80;;;24.00;50.00;;;;;;501096;237;28884;-77
2023/06/13 17:57:43;;;;;;;7.40;5.37;;;23.90;49.40;;;;;;501117;237;28725;-77
2023/06/13 17:59:45;;;;;;;8.63;5.67;;;23.90;50.30;;;;;;501063;237;28869;-77
2023/06/13 18:01:46;;;;;;;6.30;5.70;;;23.90;50.60;;;;;;501080;237;28884;-77
2023/06/13 18:03:47;;;;;;;22.83;4.70;;;24.10;51.10;;;;;;501108;237;28937;-76
2023/06/13 18:05:49;;;;;;;7.30;5.63;;;24.30;50.90;;;;;;501120;237;28783;-79
2023/06/13 18:07:51;;;;;;;8.87;4.63;;;24.30;50.50;;;;;;501082;237;29243;-78
2023/06/13 18:09:51;;;;;;;5.43;4.00;;;24.20;50.60;;;;;;500978;237;28782;-78
2023/06/13 18:11:53;;;;;;;6.80;4.73;;;24.10;51.00;;;;;;501128;237;28710;-77
2023/06/13 18:13:55;;;;;;;6.10;4.47;;;24.00;51.40;;;;;;501065;237;28761;-77
2023/06/13 18:15:54;;;;;;;9.83;4.70;;;24.00;51.90;;;;;;501033;237;28868;-79
2023/06/13 18:17:56;;;;;;;4.83;4.33;;;24.10;52.10;;;;;;501170;237;28789;-77
2023/06/13 18:19:57;;;;;;;5.03;4.53;;;24.00;52.00;;;;;;501083;237;28858;-77
2023/06/13 18:21:58;;;;;;;6.30;4.33;;;24.00;51.80;;;;;;501121;237;28741;-78
2023/06/13 18:23:59;;;;;;;5.50;3.97;;;23.90;52.50;;;;;;501119;237;28847;-77
2023/06/13 18:26:01;;;;;;;4.90;4.40;;;24.00;52.60;;;;;;501111;237;28793;-78
2023/06/13 18:28:02;;;;;;;6.17;5.03;;;24.10;52.70;;;;;;501112;237;29185;-78
2023/06/13 18:30:03;;;;;;;5.23;4.47;;;23.90;52.50;;;;;;501064;237;29233;-77
2023/06/13 18:32:04;;;;;;;5.37;4.10;;;23.90;52.80;;;;;;501075;237;29185;-77
2023/06/13 18:34:06;;;;;;;5.07;4.57;;;23.80;52.90;;;;;;501089;237;28790;-78
2023/06/13 18:36:07;;;;;;;4.60;4.20;;;23.70;53.30;;;;;;501094;234;28883;-78
2023/06/13 18:38:08;;;;;;;6.97;4.17;;;23.50;53.50;;;;;;501114;237;28721;-77
2023/06/13 18:40:09;;;;;;;6.77;4.40;;;23.40;53.40;;;;;;501077;237;28789;-77
2023/06/13 18:42:11;;;;;;;5.13;4.30;;;23.50;53.70;;;;;;501083;237;28792;-76
2023/06/13 18:44:12;;;;;;;6.43;4.47;;;23.60;53.80;;;;;;501058;237;28777;-77
2023/06/13 18:46:13;;;;;;;7.03;4.10;;;23.40;53.70;;;;;;501070;237;29219;-78
2023/06/13 18:48:14;;;;;;;5.83;4.37;;;23.30;54.60;;;;;;501097;237;28746;-76
2023/06/13 18:50:17;;;;;;;6.10;4.37;;;23.30;54.50;;;;;;501034;237;28783;-77
2023/06/13 18:52:17;;;;;;;6.77;5.00;;;23.20;55.10;;;;;;501040;237;29248;-77
2023/06/13 18:54:18;;;;;;;9.93;5.70;;;23.20;55.10;;;;;;501086;237;28765;-77
2023/06/13 18:56:19;;;;;;;7.10;4.77;;;23.10;55.40;;;;;;501060;237;29315;-76
2023/06/13 18:58:21;;;;;;;6.27;4.30;;;23.10;54.90;;;;;;501109;237;29369;-77
2023/06/13 19:00:22;;;;;;;9.50;4.03;;;22.90;55.00;;;;;;501081;237;28850;-77
2023/06/13 19:02:24;;;;;;;4.90;4.00;;;22.80;55.30;;;;;;501047;237;28813;-77